sensor_id;sensor_type;location;lat;lon;timestamp;temperature;humidity
52285;DHT22;38238;53.304;6.606;2022-09-09T00:01:20;15.30;99.90
52285;DHT22;38238;53.304;6.606;2022-09-09T00:04:02;15.30;99.90
52285;DHT22;38238;53.304;6.606;2022-09-09T00:06:45;15.30;99.90
52285;DHT22;38238;53.304;6.606;2022-09-09T00:09:19;15.30;99.90
52285;DHT22;38238;53.304;6.606;2022-09-09T00:11:52;15.20;99.90
52285;DHT22;38238;53.304;6.606;2022-09-09T00:17:02;15.20;99.90
52285;DHT22;38238;53.304;6.606;2022-09-09T00:22:16;15.10;99.90
52285;DHT22;38238;53.304;6.606;2022-09-09T00:24:45;15.10;99.90
52285;DHT22;38238;53.304;6.606;2022-09-09T00:27:42;15.00;99.90
52285;DHT22;38238;53.304;6.606;2022-09-09T00:32:49;15.00;99.90
52285;DHT22;38238;53.304;6.606;2022-09-09T00:35:29;15.00;99.90
52285;DHT22;38238;53.304;6.606;2022-09-09T00:38:00;14.90;99.90
52285;DHT22;38238;53.304;6.606;2022-09-09T00:40:32;14.90;99.90
52285;DHT22;38238;53.304;6.606;2022-09-09T00:43:26;14.90;99.90
52285;DHT22;38238;53.304;6.606;2022-09-09T00:48:22;14.80;99.90
52285;DHT22;38238;53.304;6.606;2022-09-09T00:50:58;14.80;99.90
52285;DHT22;38238;53.304;6.606;2022-09-09T00:53:51;14.80;99.90
52285;DHT22;38238;53.304;6.606;2022-09-09T00:56:25;14.80;99.90
52285;DHT22;38238;53.304;6.606;2022-09-09T00:59:25;14.80;99.90
52285;DHT22;38238;53.304;6.606;2022-09-09T01:01:54;14.70;99.90
52285;DHT22;38238;53.304;6.606;2022-09-09T01:04:29;14.80;99.90
52285;DHT22;38238;53.304;6.606;2022-09-09T01:07:18;14.70;99.90
52285;DHT22;38238;53.304;6.606;2022-09-09T01:14:56;14.70;99.90
52285;DHT22;38238;53.304;6.606;2022-09-09T01:17:39;14.70;99.90
52285;DHT22;38238;53.304;6.606;2022-09-09T01:20:32;14.70;99.90
52285;DHT22;38238;53.304;6.606;2022-09-09T01:23:16;14.70;99.90
52285;DHT22;38238;53.304;6.606;2022-09-09T01:28:29;14.60;99.90
52285;DHT22;38238;53.304;6.606;2022-09-09T01:30:57;14.60;99.90
52285;DHT22;38238;53.304;6.606;2022-09-09T01:33:24;14.60;99.90
52285;DHT22;38238;53.304;6.606;2022-09-09T01:35:53;14.60;99.90
52285;DHT22;38238;53.304;6.606;2022-09-09T01:38:21;14.60;99.90
52285;DHT22;38238;53.304;6.606;2022-09-09T01:40:48;14.60;99.90
52285;DHT22;38238;53.304;6.606;2022-09-09T01:43:14;14.60;99.90
52285;DHT22;38238;53.304;6.606;2022-09-09T01:45:41;14.50;99.90
52285;DHT22;38238;53.304;6.606;2022-09-09T01:48:07;14.50;99.90
52285;DHT22;38238;53.304;6.606;2022-09-09T01:50:32;14.50;99.90
52285;DHT22;38238;53.304;6.606;2022-09-09T01:52:59;14.50;99.90
52285;DHT22;38238;53.304;6.606;2022-09-09T01:55:40;14.40;99.90
52285;DHT22;38238;53.304;6.606;2022-09-09T02:03:59;14.40;99.90
52285;DHT22;38238;53.304;6.606;2022-09-09T02:06:37;14.30;99.90
52285;DHT22;38238;53.304;6.606;2022-09-09T02:09:05;14.30;99.90
52285;DHT22;38238;53.304;6.606;2022-09-09T02:11:35;14.30;99.90
52285;DHT22;38238;53.304;6.606;2022-09-09T02:14:05;14.30;99.90
52285;DHT22;38238;53.304;6.606;2022-09-09T02:16:48;14.20;99.90
52285;DHT22;38238;53.304;6.606;2022-09-09T02:19:36;14.20;99.90
52285;DHT22;38238;53.304;6.606;2022-09-09T02:22:03;14.20;99.90
52285;DHT22;38238;53.304;6.606;2022-09-09T02:24:33;14.20;99.90
52285;DHT22;38238;53.304;6.606;2022-09-09T02:27:02;14.20;99.90
52285;DHT22;38238;53.304;6.606;2022-09-09T02:29:41;14.20;99.90
52285;DHT22;38238;53.304;6.606;2022-09-09T02:32:12;14.20;99.90
52285;DHT22;38238;53.304;6.606;2022-09-09T02:34:43;14.20;99.90
52285;DHT22;38238;53.304;6.606;2022-09-09T02:37:09;14.20;99.90
52285;DHT22;38238;53.304;6.606;2022-09-09T02:39:36;14.20;99.90
52285;DHT22;38238;53.304;6.606;2022-09-09T02:42:05;14.20;99.90
52285;DHT22;38238;53.304;6.606;2022-09-09T02:44:32;14.20;99.90
52285;DHT22;38238;53.304;6.606;2022-09-09T02:50:08;14.30;99.90
52285;DHT22;38238;53.304;6.606;2022-09-09T02:58:03;14.30;99.90
52285;DHT22;38238;53.304;6.606;2022-09-09T03:00:34;14.30;99.90
52285;DHT22;38238;53.304;6.606;2022-09-09T03:03:05;14.30;99.90
52285;DHT22;38238;53.304;6.606;2022-09-09T03:05:31;14.30;99.90
52285;DHT22;38238;53.304;6.606;2022-09-09T03:07:57;14.40;99.90
52285;DHT22;38238;53.304;6.606;2022-09-09T03:10:23;14.40;99.90
52285;DHT22;38238;53.304;6.606;2022-09-09T03:12:49;14.50;99.90
52285;DHT22;38238;53.304;6.606;2022-09-09T03:15:16;14.50;99.90
52285;DHT22;38238;53.304;6.606;2022-09-09T03:17:42;14.50;99.90
52285;DHT22;38238;53.304;6.606;2022-09-09T03:20:08;14.60;99.90
52285;DHT22;38238;53.304;6.606;2022-09-09T03:22:34;14.60;99.90
52285;DHT22;38238;53.304;6.606;2022-09-09T03:25:00;14.60;99.90
52285;DHT22;38238;53.304;6.606;2022-09-09T03:27:28;14.60;99.90
52285;DHT22;38238;53.304;6.606;2022-09-09T03:29:54;14.60;99.90
52285;DHT22;38238;53.304;6.606;2022-09-09T03:32:21;14.60;99.90
52285;DHT22;38238;53.304;6.606;2022-09-09T03:34:48;14.60;99.90
52285;DHT22;38238;53.304;6.606;2022-09-09T03:37:16;14.60;99.90
52285;DHT22;38238;53.304;6.606;2022-09-09T03:39:43;14.60;99.90
52285;DHT22;38238;53.304;6.606;2022-09-09T03:42:09;14.60;99.90
52285;DHT22;38238;53.304;6.606;2022-09-09T03:44:34;14.60;99.90
52285;DHT22;38238;53.304;6.606;2022-09-09T03:47:00;14.60;99.90
52285;DHT22;38238;53.304;6.606;2022-09-09T03:49:26;14.70;99.90
52285;DHT22;38238;53.304;6.606;2022-09-09T03:51:55;14.60;99.90
52285;DHT22;38238;53.304;6.606;2022-09-09T03:54:23;14.70;99.90
52285;DHT22;38238;53.304;6.606;2022-09-09T03:56:49;14.70;99.90
52285;DHT22;38238;53.304;6.606;2022-09-09T03:59:14;14.70;99.90
52285;DHT22;38238;53.304;6.606;2022-09-09T04:01:40;14.70;99.90
52285;DHT22;38238;53.304;6.606;2022-09-09T04:04:06;14.70;99.90
52285;DHT22;38238;53.304;6.606;2022-09-09T04:06:33;14.70;99.90
52285;DHT22;38238;53.304;6.606;2022-09-09T04:08:59;14.80;99.90
52285;DHT22;38238;53.304;6.606;2022-09-09T04:11:25;14.70;99.90
52285;DHT22;38238;53.304;6.606;2022-09-09T04:13:50;14.80;99.90
52285;DHT22;38238;53.304;6.606;2022-09-09T04:16:16;14.70;99.90
52285;DHT22;38238;53.304;6.606;2022-09-09T04:18:42;14.70;99.90
52285;DHT22;38238;53.304;6.606;2022-09-09T04:21:09;14.70;99.90
52285;DHT22;38238;53.304;6.606;2022-09-09T04:23:35;14.70;99.90
52285;DHT22;38238;53.304;6.606;2022-09-09T04:26:02;14.70;99.90
52285;DHT22;38238;53.304;6.606;2022-09-09T04:28:31;14.80;99.90
52285;DHT22;38238;53.304;6.606;2022-09-09T04:30:57;14.80;99.90
52285;DHT22;38238;53.304;6.606;2022-09-09T04:33:28;14.80;99.90
52285;DHT22;38238;53.304;6.606;2022-09-09T04:35:56;14.80;99.90
52285;DHT22;38238;53.304;6.606;2022-09-09T04:38:22;14.80;99.90
52285;DHT22;38238;53.304;6.606;2022-09-09T04:40:49;14.90;99.90
52285;DHT22;38238;53.304;6.606;2022-09-09T04:43:17;14.90;99.90
52285;DHT22;38238;53.304;6.606;2022-09-09T04:45:47;14.90;99.90
52285;DHT22;38238;53.304;6.606;2022-09-09T04:48:13;14.90;99.90
52285;DHT22;38238;53.304;6.606;2022-09-09T04:50:39;15.00;99.90
52285;DHT22;38238;53.304;6.606;2022-09-09T04:53:06;15.00;99.90
52285;DHT22;38238;53.304;6.606;2022-09-09T04:55:33;15.00;99.90
52285;DHT22;38238;53.304;6.606;2022-09-09T04:58:08;15.00;99.90
52285;DHT22;38238;53.304;6.606;2022-09-09T05:00:35;15.00;99.90
52285;DHT22;38238;53.304;6.606;2022-09-09T05:03:07;15.00;99.90
52285;DHT22;38238;53.304;6.606;2022-09-09T05:05:34;15.00;99.90
52285;DHT22;38238;53.304;6.606;2022-09-09T05:08:08;15.00;99.90
52285;DHT22;38238;53.304;6.606;2022-09-09T05:10:37;15.00;99.90
52285;DHT22;38238;53.304;6.606;2022-09-09T05:13:03;15.00;99.90
52285;DHT22;38238;53.304;6.606;2022-09-09T05:15:29;15.00;99.90
52285;DHT22;38238;53.304;6.606;2022-09-09T05:17:59;15.00;99.90
52285;DHT22;38238;53.304;6.606;2022-09-09T05:20:26;15.00;99.90
52285;DHT22;38238;53.304;6.606;2022-09-09T05:22:55;14.90;99.90
52285;DHT22;38238;53.304;6.606;2022-09-09T05:25:22;14.90;99.90
52285;DHT22;38238;53.304;6.606;2022-09-09T05:27:49;14.90;99.90
52285;DHT22;38238;53.304;6.606;2022-09-09T05:30:15;14.90;99.90
52285;DHT22;38238;53.304;6.606;2022-09-09T05:32:42;14.90;99.90
52285;DHT22;38238;53.304;6.606;2022-09-09T05:35:11;14.90;99.90
52285;DHT22;38238;53.304;6.606;2022-09-09T05:37:38;14.90;99.90
52285;DHT22;38238;53.304;6.606;2022-09-09T05:40:05;14.90;99.90
52285;DHT22;38238;53.304;6.606;2022-09-09T05:42:31;14.90;99.90
52285;DHT22;38238;53.304;6.606;2022-09-09T05:44:57;14.90;99.90
52285;DHT22;38238;53.304;6.606;2022-09-09T05:47:23;14.90;99.90
52285;DHT22;38238;53.304;6.606;2022-09-09T05:49:49;14.90;99.90
52285;DHT22;38238;53.304;6.606;2022-09-09T05:52:14;14.80;99.90
52285;DHT22;38238;53.304;6.606;2022-09-09T05:54:40;14.80;99.90
52285;DHT22;38238;53.304;6.606;2022-09-09T05:57:08;14.80;99.90
52285;DHT22;38238;53.304;6.606;2022-09-09T05:59:34;14.90;99.90
52285;DHT22;38238;53.304;6.606;2022-09-09T06:02:00;14.80;99.90
52285;DHT22;38238;53.304;6.606;2022-09-09T06:04:25;14.90;99.90
52285;DHT22;38238;53.304;6.606;2022-09-09T06:06:51;14.80;99.90
52285;DHT22;38238;53.304;6.606;2022-09-09T06:09:17;14.90;99.90
52285;DHT22;38238;53.304;6.606;2022-09-09T06:11:43;14.90;99.90
52285;DHT22;38238;53.304;6.606;2022-09-09T06:14:09;14.90;99.90
52285;DHT22;38238;53.304;6.606;2022-09-09T06:16:35;14.90;99.90
52285;DHT22;38238;53.304;6.606;2022-09-09T06:19:03;14.90;99.90
52285;DHT22;38238;53.304;6.606;2022-09-09T06:21:36;15.00;99.90
52285;DHT22;38238;53.304;6.606;2022-09-09T06:24:06;14.90;99.90
52285;DHT22;38238;53.304;6.606;2022-09-09T06:26:38;15.00;99.90
52285;DHT22;38238;53.304;6.606;2022-09-09T06:29:06;15.00;99.90
52285;DHT22;38238;53.304;6.606;2022-09-09T06:31:33;15.00;99.90
52285;DHT22;38238;53.304;6.606;2022-09-09T06:34:00;15.00;99.90
52285;DHT22;38238;53.304;6.606;2022-09-09T06:36:31;15.10;99.90
52285;DHT22;38238;53.304;6.606;2022-09-09T06:38:57;15.10;99.90
52285;DHT22;38238;53.304;6.606;2022-09-09T06:41:24;15.10;99.90
52285;DHT22;38238;53.304;6.606;2022-09-09T06:43:51;15.10;99.90
52285;DHT22;38238;53.304;6.606;2022-09-09T06:46:20;15.20;99.90
52285;DHT22;38238;53.304;6.606;2022-09-09T06:48:47;15.20;99.90
52285;DHT22;38238;53.304;6.606;2022-09-09T06:51:20;15.20;99.90
52285;DHT22;38238;53.304;6.606;2022-09-09T06:53:54;15.30;99.90
52285;DHT22;38238;53.304;6.606;2022-09-09T06:58:54;15.30;99.90
52285;DHT22;38238;53.304;6.606;2022-09-09T07:01:25;15.40;99.90
52285;DHT22;38238;53.304;6.606;2022-09-09T07:03:53;15.40;99.90
52285;DHT22;38238;53.304;6.606;2022-09-09T07:06:22;15.40;99.90
52285;DHT22;38238;53.304;6.606;2022-09-09T07:08:54;15.50;99.90
52285;DHT22;38238;53.304;6.606;2022-09-09T07:11:21;15.50;99.90
52285;DHT22;38238;53.304;6.606;2022-09-09T07:13:48;15.60;99.90
52285;DHT22;38238;53.304;6.606;2022-09-09T07:16:17;15.60;99.90
52285;DHT22;38238;53.304;6.606;2022-09-09T07:18:47;15.70;99.90
52285;DHT22;38238;53.304;6.606;2022-09-09T07:21:14;15.70;99.90
52285;DHT22;38238;53.304;6.606;2022-09-09T07:23:40;15.80;99.90
52285;DHT22;38238;53.304;6.606;2022-09-09T07:26:12;15.90;99.90
52285;DHT22;38238;53.304;6.606;2022-09-09T07:28:39;16.00;99.90
52285;DHT22;38238;53.304;6.606;2022-09-09T07:31:05;16.00;99.90
52285;DHT22;38238;53.304;6.606;2022-09-09T07:33:33;16.10;99.90
52285;DHT22;38238;53.304;6.606;2022-09-09T07:36:06;16.10;99.90
52285;DHT22;38238;53.304;6.606;2022-09-09T07:38:39;16.10;99.90
52285;DHT22;38238;53.304;6.606;2022-09-09T07:41:07;16.20;99.90
52285;DHT22;38238;53.304;6.606;2022-09-09T07:43:45;16.20;99.90
52285;DHT22;38238;53.304;6.606;2022-09-09T07:46:12;16.20;99.90
52285;DHT22;38238;53.304;6.606;2022-09-09T07:48:43;16.20;99.90
52285;DHT22;38238;53.304;6.606;2022-09-09T07:51:12;16.30;99.90
52285;DHT22;38238;53.304;6.606;2022-09-09T07:53:41;16.30;99.90
52285;DHT22;38238;53.304;6.606;2022-09-09T07:56:10;16.30;99.90
52285;DHT22;38238;53.304;6.606;2022-09-09T07:58:37;16.30;99.90
52285;DHT22;38238;53.304;6.606;2022-09-09T08:01:12;16.40;99.90
52285;DHT22;38238;53.304;6.606;2022-09-09T08:03:38;16.50;99.90
52285;DHT22;38238;53.304;6.606;2022-09-09T08:06:06;16.50;99.90
52285;DHT22;38238;53.304;6.606;2022-09-09T08:08:34;16.60;99.90
52285;DHT22;38238;53.304;6.606;2022-09-09T08:11:14;16.70;99.90
52285;DHT22;38238;53.304;6.606;2022-09-09T08:13:42;16.80;99.90
52285;DHT22;38238;53.304;6.606;2022-09-09T08:18:35;17.00;99.90
52285;DHT22;38238;53.304;6.606;2022-09-09T08:21:16;17.10;99.90
52285;DHT22;38238;53.304;6.606;2022-09-09T08:23:44;17.10;99.90
52285;DHT22;38238;53.304;6.606;2022-09-09T08:26:17;17.20;99.90
52285;DHT22;38238;53.304;6.606;2022-09-09T08:28:43;17.20;99.90
52285;DHT22;38238;53.304;6.606;2022-09-09T08:31:18;17.20;99.90
52285;DHT22;38238;53.304;6.606;2022-09-09T08:33:44;17.30;99.90
52285;DHT22;38238;53.304;6.606;2022-09-09T08:36:24;17.30;99.90
52285;DHT22;38238;53.304;6.606;2022-09-09T08:38:53;17.40;99.90
52285;DHT22;38238;53.304;6.606;2022-09-09T08:44:07;17.40;99.90
52285;DHT22;38238;53.304;6.606;2022-09-09T08:52:29;17.40;99.90
52285;DHT22;38238;53.304;6.606;2022-09-09T08:57:42;17.60;99.90
52285;DHT22;38238;53.304;6.606;2022-09-09T09:00:11;17.70;99.90
52285;DHT22;38238;53.304;6.606;2022-09-09T09:08:16;18.00;99.90
52285;DHT22;38238;53.304;6.606;2022-09-09T09:10:47;18.00;99.90
52285;DHT22;38238;53.304;6.606;2022-09-09T09:16:19;18.30;99.90
52285;DHT22;38238;53.304;6.606;2022-09-09T09:18:46;18.50;99.90
52285;DHT22;38238;53.304;6.606;2022-09-09T09:21:16;18.60;99.90
52285;DHT22;38238;53.304;6.606;2022-09-09T09:23:54;18.70;99.90
52285;DHT22;38238;53.304;6.606;2022-09-09T09:26:30;18.80;99.90
52285;DHT22;38238;53.304;6.606;2022-09-09T09:28:59;18.80;99.90
52285;DHT22;38238;53.304;6.606;2022-09-09T09:31:26;18.80;99.90
52285;DHT22;38238;53.304;6.606;2022-09-09T09:33:56;18.90;99.90
52285;DHT22;38238;53.304;6.606;2022-09-09T09:36:44;19.00;99.90
52285;DHT22;38238;53.304;6.606;2022-09-09T09:39:26;19.10;99.90
52285;DHT22;38238;53.304;6.606;2022-09-09T09:41:53;19.20;99.90
52285;DHT22;38238;53.304;6.606;2022-09-09T09:46:50;19.40;99.90
52285;DHT22;38238;53.304;6.606;2022-09-09T09:49:16;19.10;99.90
52285;DHT22;38238;53.304;6.606;2022-09-09T09:51:42;19.00;99.90
52285;DHT22;38238;53.304;6.606;2022-09-09T09:56:40;19.00;99.90
52285;DHT22;38238;53.304;6.606;2022-09-09T09:59:37;19.10;99.90
52285;DHT22;38238;53.304;6.606;2022-09-09T10:02:25;19.30;99.90
52285;DHT22;38238;53.304;6.606;2022-09-09T10:05:15;19.50;99.90
52285;DHT22;38238;53.304;6.606;2022-09-09T10:07:41;19.60;99.90
52285;DHT22;38238;53.304;6.606;2022-09-09T10:10:23;19.80;99.90
52285;DHT22;38238;53.304;6.606;2022-09-09T10:13:11;20.10;99.90
52285;DHT22;38238;53.304;6.606;2022-09-09T10:19:00;20.20;99.90
52285;DHT22;38238;53.304;6.606;2022-09-09T10:26:58;19.80;99.90
52285;DHT22;38238;53.304;6.606;2022-09-09T10:32:29;19.50;99.90
52285;DHT22;38238;53.304;6.606;2022-09-09T10:35:04;19.50;99.90
52285;DHT22;38238;53.304;6.606;2022-09-09T10:40:38;19.40;99.90
52285;DHT22;38238;53.304;6.606;2022-09-09T10:46:01;19.40;99.90
52285;DHT22;38238;53.304;6.606;2022-09-09T10:56:30;19.30;99.90
52285;DHT22;38238;53.304;6.606;2022-09-09T10:59:20;19.20;99.90
52285;DHT22;38238;53.304;6.606;2022-09-09T11:02:35;19.10;99.90
52285;DHT22;38238;53.304;6.606;2022-09-09T11:07:14;19.10;99.90
52285;DHT22;38238;53.304;6.606;2022-09-09T11:09:49;19.20;99.90
52285;DHT22;38238;53.304;6.606;2022-09-09T11:12:19;19.20;99.90
52285;DHT22;38238;53.304;6.606;2022-09-09T11:14:50;19.10;99.90
52285;DHT22;38238;53.304;6.606;2022-09-09T11:17:36;19.10;99.90
52285;DHT22;38238;53.304;6.606;2022-09-09T11:20:05;19.20;99.90
52285;DHT22;38238;53.304;6.606;2022-09-09T11:22:39;19.90;99.90
52285;DHT22;38238;53.304;6.606;2022-09-09T11:25:20;20.70;99.90
52285;DHT22;38238;53.304;6.606;2022-09-09T11:31:07;22.10;99.90
52285;DHT22;38238;53.304;6.606;2022-09-09T11:39:27;21.80;99.90
52285;DHT22;38238;53.304;6.606;2022-09-09T11:44:41;22.10;99.90
52285;DHT22;38238;53.304;6.606;2022-09-09T11:47:29;22.50;99.90
52285;DHT22;38238;53.304;6.606;2022-09-09T11:50:27;22.90;99.90
52285;DHT22;38238;53.304;6.606;2022-09-09T11:55:32;23.10;99.90
52285;DHT22;38238;53.304;6.606;2022-09-09T11:58:03;23.40;99.90
52285;DHT22;38238;53.304;6.606;2022-09-09T12:00:37;23.50;99.90
52285;DHT22;38238;53.304;6.606;2022-09-09T12:03:04;23.70;99.90
52285;DHT22;38238;53.304;6.606;2022-09-09T12:05:39;23.90;99.90
52285;DHT22;38238;53.304;6.606;2022-09-09T12:08:09;23.80;99.90
52285;DHT22;38238;53.304;6.606;2022-09-09T12:10:39;23.20;99.90
52285;DHT22;38238;53.304;6.606;2022-09-09T12:15:52;21.90;99.90
52285;DHT22;38238;53.304;6.606;2022-09-09T12:18:24;21.70;99.90
52285;DHT22;38238;53.304;6.606;2022-09-09T12:26:49;22.40;99.90
52285;DHT22;38238;53.304;6.606;2022-09-09T12:36:58;21.30;99.90
52285;DHT22;38238;53.304;6.606;2022-09-09T12:39:36;21.30;99.90
52285;DHT22;38238;53.304;6.606;2022-09-09T12:42:03;21.20;99.90
52285;DHT22;38238;53.304;6.606;2022-09-09T12:44:30;21.20;99.90
52285;DHT22;38238;53.304;6.606;2022-09-09T12:47:01;21.30;99.90
52285;DHT22;38238;53.304;6.606;2022-09-09T12:49:37;21.40;99.90
52285;DHT22;38238;53.304;6.606;2022-09-09T12:52:07;21.50;99.90
52285;DHT22;38238;53.304;6.606;2022-09-09T12:54:36;21.50;99.90
52285;DHT22;38238;53.304;6.606;2022-09-09T12:57:03;21.60;99.90
52285;DHT22;38238;53.304;6.606;2022-09-09T12:59:39;21.50;99.90
52285;DHT22;38238;53.304;6.606;2022-09-09T13:02:25;21.40;99.90
52285;DHT22;38238;53.304;6.606;2022-09-09T13:04:52;21.30;99.90
52285;DHT22;38238;53.304;6.606;2022-09-09T13:07:20;21.10;99.90
52285;DHT22;38238;53.304;6.606;2022-09-09T13:09:48;21.10;99.90
52285;DHT22;38238;53.304;6.606;2022-09-09T13:12:22;21.20;99.90
52285;DHT22;38238;53.304;6.606;2022-09-09T13:14:55;21.40;99.90
52285;DHT22;38238;53.304;6.606;2022-09-09T13:17:26;21.60;99.90
52285;DHT22;38238;53.304;6.606;2022-09-09T13:19:54;21.60;99.90
52285;DHT22;38238;53.304;6.606;2022-09-09T13:25:17;21.60;99.90
52285;DHT22;38238;53.304;6.606;2022-09-09T13:27:54;21.50;99.90
52285;DHT22;38238;53.304;6.606;2022-09-09T13:30:24;21.60;99.90
52285;DHT22;38238;53.304;6.606;2022-09-09T13:35:35;21.70;99.90
52285;DHT22;38238;53.304;6.606;2022-09-09T13:38:08;21.70;99.90
52285;DHT22;38238;53.304;6.606;2022-09-09T13:40:37;21.80;99.90
52285;DHT22;38238;53.304;6.606;2022-09-09T13:43:03;21.90;99.90
52285;DHT22;38238;53.304;6.606;2022-09-09T13:45:30;21.80;99.90
52285;DHT22;38238;53.304;6.606;2022-09-09T13:47:56;21.70;99.90
52285;DHT22;38238;53.304;6.606;2022-09-09T13:52:51;21.50;99.90
52285;DHT22;38238;53.304;6.606;2022-09-09T13:55:20;21.40;99.90
52285;DHT22;38238;53.304;6.606;2022-09-09T13:57:54;21.40;99.90
52285;DHT22;38238;53.304;6.606;2022-09-09T14:00:21;21.50;99.90
52285;DHT22;38238;53.304;6.606;2022-09-09T14:02:50;21.50;99.90
52285;DHT22;38238;53.304;6.606;2022-09-09T14:05:17;21.40;99.90
52285;DHT22;38238;53.304;6.606;2022-09-09T14:07:44;21.30;99.90
52285;DHT22;38238;53.304;6.606;2022-09-09T14:10:11;21.20;99.90
52285;DHT22;38238;53.304;6.606;2022-09-09T14:12:40;21.10;99.90
52285;DHT22;38238;53.304;6.606;2022-09-09T14:15:06;21.00;99.90
52285;DHT22;38238;53.304;6.606;2022-09-09T14:17:33;20.90;99.90
52285;DHT22;38238;53.304;6.606;2022-09-09T14:20:03;20.80;99.90
52285;DHT22;38238;53.304;6.606;2022-09-09T14:22:31;20.80;99.90
52285;DHT22;38238;53.304;6.606;2022-09-09T14:24:57;20.80;99.90
52285;DHT22;38238;53.304;6.606;2022-09-09T14:27:23;20.90;99.90
52285;DHT22;38238;53.304;6.606;2022-09-09T14:29:51;21.00;99.90
52285;DHT22;38238;53.304;6.606;2022-09-09T14:32:17;21.30;99.90
52285;DHT22;38238;53.304;6.606;2022-09-09T14:34:42;21.40;99.90
52285;DHT22;38238;53.304;6.606;2022-09-09T14:37:08;21.40;99.90
52285;DHT22;38238;53.304;6.606;2022-09-09T14:39:34;21.20;99.90
52285;DHT22;38238;53.304;6.606;2022-09-09T14:41:59;21.00;99.90
52285;DHT22;38238;53.304;6.606;2022-09-09T14:44:25;20.90;99.90
52285;DHT22;38238;53.304;6.606;2022-09-09T14:46:51;20.80;99.90
52285;DHT22;38238;53.304;6.606;2022-09-09T14:49:16;20.70;99.90
52285;DHT22;38238;53.304;6.606;2022-09-09T14:51:43;20.60;99.90
52285;DHT22;38238;53.304;6.606;2022-09-09T14:54:11;20.60;99.90
52285;DHT22;38238;53.304;6.606;2022-09-09T14:56:37;21.00;99.90
52285;DHT22;38238;53.304;6.606;2022-09-09T14:59:03;20.30;99.90
52285;DHT22;38238;53.304;6.606;2022-09-09T15:01:30;20.20;99.90
52285;DHT22;38238;53.304;6.606;2022-09-09T15:04:02;20.10;99.90
52285;DHT22;38238;53.304;6.606;2022-09-09T15:06:31;20.10;99.90
52285;DHT22;38238;53.304;6.606;2022-09-09T15:08:58;20.00;99.90
52285;DHT22;38238;53.304;6.606;2022-09-09T15:11:27;19.80;99.90
52285;DHT22;38238;53.304;6.606;2022-09-09T15:13:56;19.50;99.90
52285;DHT22;38238;53.304;6.606;2022-09-09T15:16:25;19.30;99.90
52285;DHT22;38238;53.304;6.606;2022-09-09T15:18:58;19.10;99.90
52285;DHT22;38238;53.304;6.606;2022-09-09T15:21:27;18.90;99.90
52285;DHT22;38238;53.304;6.606;2022-09-09T15:23:54;18.80;99.90
52285;DHT22;38238;53.304;6.606;2022-09-09T15:26:20;18.70;99.90
52285;DHT22;38238;53.304;6.606;2022-09-09T15:28:47;18.80;99.90
52285;DHT22;38238;53.304;6.606;2022-09-09T15:31:22;18.80;99.90
52285;DHT22;38238;53.304;6.606;2022-09-09T15:36:22;19.00;99.90
52285;DHT22;38238;53.304;6.606;2022-09-09T15:38:49;19.10;99.90
52285;DHT22;38238;53.304;6.606;2022-09-09T15:41:16;19.30;99.90
52285;DHT22;38238;53.304;6.606;2022-09-09T15:43:47;19.30;99.90
52285;DHT22;38238;53.304;6.606;2022-09-09T15:48:57;19.40;99.90
52285;DHT22;38238;53.304;6.606;2022-09-09T15:51:24;19.30;99.90
52285;DHT22;38238;53.304;6.606;2022-09-09T15:53:56;19.30;99.90
52285;DHT22;38238;53.304;6.606;2022-09-09T15:56:23;19.30;99.90
52285;DHT22;38238;53.304;6.606;2022-09-09T15:58:49;19.30;99.90
52285;DHT22;38238;53.304;6.606;2022-09-09T16:01:15;19.20;99.90
52285;DHT22;38238;53.304;6.606;2022-09-09T16:03:42;19.20;99.90
52285;DHT22;38238;53.304;6.606;2022-09-09T16:06:10;19.20;99.90
52285;DHT22;38238;53.304;6.606;2022-09-09T16:08:40;19.10;99.90
52285;DHT22;38238;53.304;6.606;2022-09-09T16:11:13;19.10;99.90
52285;DHT22;38238;53.304;6.606;2022-09-09T16:13:43;19.20;99.90
52285;DHT22;38238;53.304;6.606;2022-09-09T16:16:10;19.30;99.90
52285;DHT22;38238;53.304;6.606;2022-09-09T16:18:40;19.30;99.90
52285;DHT22;38238;53.304;6.606;2022-09-09T16:21:06;19.40;99.90
52285;DHT22;38238;53.304;6.606;2022-09-09T16:23:34;19.30;99.90
52285;DHT22;38238;53.304;6.606;2022-09-09T16:26:00;19.30;99.90
52285;DHT22;38238;53.304;6.606;2022-09-09T16:28:27;19.00;99.90
52285;DHT22;38238;53.304;6.606;2022-09-09T16:30:53;19.30;99.90
52285;DHT22;38238;53.304;6.606;2022-09-09T16:33:18;19.20;99.90
52285;DHT22;38238;53.304;6.606;2022-09-09T16:35:44;19.10;99.90
52285;DHT22;38238;53.304;6.606;2022-09-09T16:38:10;19.10;99.90
52285;DHT22;38238;53.304;6.606;2022-09-09T16:40:39;19.00;99.90
52285;DHT22;38238;53.304;6.606;2022-09-09T16:43:07;18.90;99.90
52285;DHT22;38238;53.304;6.606;2022-09-09T16:45:33;18.80;99.90
52285;DHT22;38238;53.304;6.606;2022-09-09T16:47:59;18.80;99.90
52285;DHT22;38238;53.304;6.606;2022-09-09T16:50:26;18.70;99.90
52285;DHT22;38238;53.304;6.606;2022-09-09T16:52:52;18.60;99.90
52285;DHT22;38238;53.304;6.606;2022-09-09T16:55:18;18.60;99.90
52285;DHT22;38238;53.304;6.606;2022-09-09T16:57:47;18.50;99.90
52285;DHT22;38238;53.304;6.606;2022-09-09T17:00:15;18.50;99.90
52285;DHT22;38238;53.304;6.606;2022-09-09T17:02:42;18.40;99.90
52285;DHT22;38238;53.304;6.606;2022-09-09T17:05:08;18.40;99.90
52285;DHT22;38238;53.304;6.606;2022-09-09T17:07:35;18.40;99.90
52285;DHT22;38238;53.304;6.606;2022-09-09T17:10:01;18.40;99.90
52285;DHT22;38238;53.304;6.606;2022-09-09T17:12:27;18.40;99.90
52285;DHT22;38238;53.304;6.606;2022-09-09T17:14:53;18.30;99.90
52285;DHT22;38238;53.304;6.606;2022-09-09T17:17:20;18.40;99.90
52285;DHT22;38238;53.304;6.606;2022-09-09T17:19:46;18.30;99.90
52285;DHT22;38238;53.304;6.606;2022-09-09T17:22:12;18.20;99.90
52285;DHT22;38238;53.304;6.606;2022-09-09T17:24:38;18.20;99.90
52285;DHT22;38238;53.304;6.606;2022-09-09T17:27:08;18.20;99.90
52285;DHT22;38238;53.304;6.606;2022-09-09T17:29:34;18.10;99.90
52285;DHT22;38238;53.304;6.606;2022-09-09T17:32:02;18.10;99.90
52285;DHT22;38238;53.304;6.606;2022-09-09T17:34:28;18.10;99.90
52285;DHT22;38238;53.304;6.606;2022-09-09T17:36:53;18.00;99.90
52285;DHT22;38238;53.304;6.606;2022-09-09T17:39:19;18.00;99.90
52285;DHT22;38238;53.304;6.606;2022-09-09T17:41:45;17.90;99.90
52285;DHT22;38238;53.304;6.606;2022-09-09T17:44:11;17.90;99.90
52285;DHT22;38238;53.304;6.606;2022-09-09T17:46:39;17.90;99.90
52285;DHT22;38238;53.304;6.606;2022-09-09T17:49:13;17.90;99.90
52285;DHT22;38238;53.304;6.606;2022-09-09T17:51:40;17.80;99.90
52285;DHT22;38238;53.304;6.606;2022-09-09T17:54:13;17.90;99.90
52285;DHT22;38238;53.304;6.606;2022-09-09T17:56:40;17.90;99.90
52285;DHT22;38238;53.304;6.606;2022-09-09T17:59:11;17.90;99.90
52285;DHT22;38238;53.304;6.606;2022-09-09T18:01:39;17.90;99.90